Air Navigation Services of Czech Republic
Airport: LKKB Updated:  23.09.2020 05:00:24  UTC
 METAR LKKB 23.09. 05:00 ...
METAR LKKB 230500Z 17002KT CAVOK 12/09 Q1008 NOSIG RMK BLU BLU=
 TAF LKKB 22.09. 23:00 ...
TAF LKKB 222300Z 2300/2400 12004KT CAVOK      BECMG 2308/2310 24008KT BKN035      TEMPO 2315/2400 27016KT 7000 SHRA SCT025TCU BKN030      PROB30 TEMPO 2315/2320 TSRA SCT030CB=